createdAt,value
2022-10-17T00:01:28.581Z,9.37
2022-10-17T00:04:31.405Z,9.38
2022-10-17T00:07:33.761Z,9.38
2022-10-17T00:10:36.774Z,9.35
2022-10-17T00:13:38.967Z,9.28
2022-10-17T00:16:41.482Z,9.27
2022-10-17T00:19:43.704Z,9.25
2022-10-17T00:22:46.204Z,9.23
2022-10-17T00:25:48.404Z,9.19
2022-10-17T00:28:51.995Z,9.18
2022-10-17T00:31:55.965Z,9.16
2022-10-17T00:34:58.800Z,9.13
2022-10-17T00:38:01.061Z,9.09
2022-10-17T00:41:04.044Z,9.06
2022-10-17T00:44:08.196Z,9.05
2022-10-17T00:47:13.942Z,9.02
2022-10-17T00:50:16.639Z,8.98
2022-10-17T00:53:19.579Z,8.94
2022-10-17T00:56:21.827Z,8.91
2022-10-17T00:59:24.901Z,8.90
2022-10-17T01:02:27.571Z,8.86
2022-10-17T01:05:30.753Z,8.86
2022-10-17T01:08:33.079Z,8.85
2022-10-17T01:11:44.858Z,8.85
2022-10-17T01:14:54.579Z,8.85
2022-10-17T01:18:20.395Z,8.86
2022-10-17T01:21:37.873Z,8.85
2022-10-17T01:24:52.711Z,8.81
2022-10-17T01:28:17.090Z,8.75
2022-10-17T01:31:23.026Z,8.72
2022-10-17T01:34:39.736Z,8.70
2022-10-17T01:41:03.362Z,8.69
2022-10-17T01:44:13.320Z,8.68
2022-10-17T01:47:20.771Z,8.62
2022-10-17T01:50:31.097Z,8.55
2022-10-17T01:53:37.614Z,8.55
2022-10-17T01:56:41.414Z,8.54
2022-10-17T01:59:46.420Z,8.54
2022-10-17T02:02:50.972Z,8.55
2022-10-17T02:05:53.727Z,8.53
2022-10-17T02:08:56.514Z,8.50
2022-10-17T02:12:17.833Z,8.47
2022-10-17T02:15:23.154Z,8.44
2022-10-17T02:18:36.451Z,8.41
2022-10-17T02:21:45.095Z,8.38
2022-10-17T02:24:52.768Z,8.34
2022-10-17T02:28:06.530Z,8.31
2022-10-17T02:31:14.506Z,8.34
2022-10-17T02:34:22.620Z,8.30
2022-10-17T02:37:27.959Z,8.32
2022-10-17T02:40:31.674Z,8.30
2022-10-17T02:43:36.131Z,8.29
2022-10-17T02:46:39.956Z,8.27
2022-10-17T02:49:46.894Z,8.25
2022-10-17T02:52:55.380Z,8.25
2022-10-17T02:56:01.797Z,8.24
2022-10-17T02:59:07.528Z,8.23
2022-10-17T03:02:10.271Z,8.22
2022-10-17T03:05:19.199Z,8.21
2022-10-17T03:08:22.068Z,8.18
2022-10-17T03:11:24.418Z,8.14
2022-10-17T03:14:27.193Z,8.14
2022-10-17T03:17:29.503Z,8.12
2022-10-17T03:20:32.697Z,8.12
2022-10-17T03:23:34.920Z,8.16
2022-10-17T03:26:37.990Z,8.20
2022-10-17T03:29:40.691Z,8.15
2022-10-17T03:32:43.422Z,8.12
2022-10-17T03:35:45.846Z,8.09
2022-10-17T03:38:48.974Z,8.05
2022-10-17T03:41:51.790Z,8.03
2022-10-17T03:44:54.303Z,8.02
2022-10-17T03:47:56.626Z,8.02
2022-10-17T03:51:01.202Z,8.04
2022-10-17T03:54:04.263Z,8.04
2022-10-17T03:57:07.067Z,8.08
2022-10-17T04:00:09.675Z,8.05
2022-10-17T04:03:17.182Z,8.02
2022-10-17T04:06:21.149Z,8.00
2022-10-17T04:09:23.786Z,7.98
2022-10-17T04:12:27.950Z,7.98
2022-10-17T04:15:30.490Z,8.00
2022-10-17T04:18:33.477Z,8.02
2022-10-17T04:21:35.834Z,8.05
2022-10-17T04:24:38.781Z,8.05
2022-10-17T04:27:41.297Z,8.05
2022-10-17T04:30:45.583Z,8.01
2022-10-17T04:33:49.132Z,8.02
2022-10-17T04:36:52.127Z,7.99
2022-10-17T04:39:54.733Z,7.96
2022-10-17T04:42:57.472Z,7.99
2022-10-17T04:46:01.583Z,8.02
2022-10-17T04:49:04.159Z,7.96
2022-10-17T04:52:06.605Z,7.91
2022-10-17T04:55:11.008Z,7.90
2022-10-17T04:58:13.584Z,7.88
2022-10-17T05:01:21.317Z,7.89
2022-10-17T05:04:25.364Z,7.90
2022-10-17T05:07:27.993Z,7.87
2022-10-17T05:10:31.116Z,7.86
2022-10-17T05:13:33.770Z,7.87
2022-10-17T05:16:36.066Z,7.87
2022-10-17T05:19:38.619Z,7.88
2022-10-17T05:22:42.212Z,7.89
2022-10-17T05:25:45.536Z,7.92
2022-10-17T05:28:47.992Z,7.96
2022-10-17T05:31:51.656Z,8.01
2022-10-17T05:34:54.012Z,8.05
2022-10-17T05:37:58.207Z,8.08
2022-10-17T05:41:01.894Z,8.06
2022-10-17T05:44:11.509Z,8.11
2022-10-17T05:47:14.215Z,8.20
2022-10-17T05:50:17.457Z,8.27
2022-10-17T05:53:20.196Z,8.37
2022-10-17T05:56:23.098Z,8.45
2022-10-17T05:59:26.457Z,8.55
2022-10-17T06:02:29.509Z,8.64
2022-10-17T06:05:35.012Z,8.73
2022-10-17T06:08:38.564Z,8.82
2022-10-17T06:11:41.441Z,8.99
2022-10-17T06:14:43.744Z,9.06
2022-10-17T06:17:47.603Z,9.21
2022-10-17T06:20:50.105Z,9.45
2022-10-17T06:23:53.408Z,9.59
2022-10-17T06:26:57.077Z,9.76
2022-10-17T06:29:59.699Z,9.89
2022-10-17T06:33:05.544Z,10.03
2022-10-17T06:36:09.924Z,10.18
2022-10-17T06:39:12.256Z,10.32
2022-10-17T06:42:15.655Z,10.49
2022-10-17T06:45:19.069Z,10.62
2022-10-17T06:48:22.035Z,10.82
2022-10-17T06:51:24.550Z,10.95
2022-10-17T06:54:28.159Z,11.11
2022-10-17T06:57:31.188Z,11.25
2022-10-17T07:00:34.616Z,11.42
2022-10-17T07:03:37.991Z,11.50
2022-10-17T07:06:40.913Z,11.63
2022-10-17T07:09:43.728Z,11.78
2022-10-17T07:12:46.548Z,11.90
2022-10-17T07:15:48.856Z,12.10
2022-10-17T07:18:52.632Z,12.26
2022-10-17T07:21:55.057Z,12.27
2022-10-17T07:24:57.599Z,12.42
2022-10-17T07:28:00.352Z,12.60
2022-10-17T07:31:05.661Z,12.79
2022-10-17T07:34:08.306Z,12.85
2022-10-17T07:37:11.890Z,12.96
2022-10-17T07:40:14.992Z,13.16
2022-10-17T07:43:18.787Z,13.25
2022-10-17T07:46:21.078Z,13.34
2022-10-17T07:49:23.934Z,13.46
2022-10-17T07:52:27.183Z,13.48
2022-10-17T07:55:30.491Z,13.56
2022-10-17T07:58:32.899Z,13.67
2022-10-17T08:01:35.477Z,13.75
2022-10-17T08:04:39.128Z,13.73
2022-10-17T08:07:41.841Z,13.96
2022-10-17T08:10:44.387Z,14.23
2022-10-17T08:13:46.661Z,14.19
2022-10-17T08:16:49.149Z,14.39
2022-10-17T08:19:51.392Z,14.43
2022-10-17T08:23:03.575Z,14.51
2022-10-17T08:26:08.154Z,14.53
2022-10-17T08:29:14.649Z,14.75
2022-10-17T08:32:16.896Z,14.86
2022-10-17T08:35:19.474Z,15.16
2022-10-17T08:38:23.314Z,15.36
2022-10-17T08:41:38.805Z,15.40
2022-10-17T08:44:44.087Z,15.39
2022-10-17T08:47:48.646Z,15.43
2022-10-17T08:51:09.399Z,15.58
2022-10-17T08:54:16.864Z,15.70
2022-10-17T08:57:19.069Z,15.93
2022-10-17T09:00:22.347Z,16.05
2022-10-17T09:03:27.472Z,16.09
2022-10-17T09:06:35.468Z,16.18
2022-10-17T09:09:38.123Z,16.32
2022-10-17T09:13:06.837Z,16.48
2022-10-17T09:16:25.409Z,16.55
2022-10-17T09:19:33.722Z,16.77
2022-10-17T09:22:49.812Z,16.90
2022-10-17T09:25:58.211Z,16.97
2022-10-17T09:29:01.105Z,17.06
2022-10-17T09:32:11.241Z,17.15
2022-10-17T09:35:17.384Z,17.24
2022-10-17T09:38:21.443Z,17.40
2022-10-17T09:41:56.113Z,17.57
2022-10-17T09:44:52.976Z,17.69
2022-10-17T09:48:30.610Z,17.60
2022-10-17T09:51:33.221Z,17.81
2022-10-17T09:54:46.617Z,17.98
2022-10-17T09:57:54.178Z,18.22
2022-10-17T10:01:16.425Z,18.13
2022-10-17T10:04:20.916Z,18.17
2022-10-17T10:07:28.990Z,18.25
2022-10-17T10:10:32.605Z,18.46
2022-10-17T10:13:35.236Z,18.66
2022-10-17T10:16:42.388Z,18.68
2022-10-17T10:19:50.102Z,18.62
2022-10-17T10:23:05.701Z,18.74
2022-10-17T10:26:22.304Z,18.81
2022-10-17T10:29:25.065Z,18.92
2022-10-17T10:32:29.018Z,18.98
2022-10-17T10:35:33.406Z,19.07
2022-10-17T10:38:39.343Z,19.25
2022-10-17T10:41:48.283Z,19.40
2022-10-17T10:44:51.600Z,19.46
2022-10-17T10:47:55.136Z,19.60
2022-10-17T10:50:59.912Z,19.63
2022-10-17T10:54:22.808Z,19.76
2022-10-17T10:57:27.667Z,19.67
2022-10-17T11:00:32.461Z,19.76
2022-10-17T11:04:01.078Z,19.69
2022-10-17T11:07:14.285Z,19.75
2022-10-17T11:10:52.300Z,19.88
2022-10-17T11:14:05.054Z,19.90
2022-10-17T11:17:19.683Z,20.04
2022-10-17T11:20:31.914Z,20.13
2022-10-17T11:23:34.110Z,20.19
2022-10-17T11:26:40.572Z,20.28
2022-10-17T11:29:44.368Z,20.36
2022-10-17T11:32:49.835Z,20.29
2022-10-17T11:35:53.333Z,20.40
2022-10-17T11:38:59.078Z,20.49
2022-10-17T11:42:09.644Z,20.66
2022-10-17T11:45:15.188Z,20.71
2022-10-17T11:48:21.253Z,20.67
2022-10-17T11:54:51.004Z,20.71
2022-10-17T11:57:56.561Z,20.90
2022-10-17T12:01:17.797Z,20.87
2022-10-17T12:04:55.804Z,20.96
2022-10-17T12:08:05.696Z,21.05
2022-10-17T12:11:14.492Z,20.94
2022-10-17T12:14:35.091Z,20.88
2022-10-17T12:17:41.362Z,20.77
2022-10-17T12:20:43.708Z,20.86
2022-10-17T12:23:53.942Z,20.92
2022-10-17T12:27:18.713Z,20.90
2022-10-17T12:30:25.703Z,21.03
2022-10-17T12:33:27.964Z,21.08
2022-10-17T12:36:30.467Z,21.07
2022-10-17T12:39:33.470Z,21.04
2022-10-17T12:42:45.943Z,20.89
2022-10-17T12:45:48.305Z,20.87
2022-10-17T12:49:01.392Z,20.94
2022-10-17T12:52:06.613Z,21.03
2022-10-17T12:55:14.376Z,21.05
2022-10-17T12:58:17.236Z,20.91
2022-10-17T13:01:32.464Z,20.87
2022-10-17T13:04:36.276Z,20.90
2022-10-17T13:07:41.520Z,20.95
2022-10-17T13:10:47.904Z,20.91
2022-10-17T13:13:53.528Z,20.81
2022-10-17T13:16:57.694Z,20.84
2022-10-17T13:20:00.673Z,20.75
2022-10-17T13:23:03.806Z,20.73
2022-10-17T13:26:20.016Z,20.54
2022-10-17T13:29:25.603Z,20.52
2022-10-17T13:32:35.823Z,20.33
2022-10-17T13:39:07.644Z,20.20
2022-10-17T13:42:25.914Z,20.33
2022-10-17T13:45:33.533Z,20.34
2022-10-17T13:48:37.349Z,20.33
2022-10-17T13:51:42.844Z,20.32
2022-10-17T13:54:48.257Z,20.30
2022-10-17T13:57:52.493Z,20.39
2022-10-17T14:00:55.001Z,20.35
2022-10-17T14:04:08.371Z,20.41
2022-10-17T14:08:09.965Z,20.38
2022-10-17T14:11:28.494Z,20.42
2022-10-17T14:14:41.681Z,20.35
2022-10-17T14:18:08.324Z,20.34
2022-10-17T14:24:35.224Z,20.06
2022-10-17T14:27:52.097Z,20.12
2022-10-17T14:31:08.783Z,20.02
2022-10-17T14:34:21.978Z,19.92
2022-10-17T14:37:24.548Z,19.81
2022-10-17T14:40:27.923Z,19.76
2022-10-17T14:43:31.024Z,19.70
2022-10-17T14:46:35.208Z,19.72
2022-10-17T14:49:39.993Z,19.75
2022-10-17T14:52:43.148Z,19.62
2022-10-17T14:55:55.652Z,19.47
2022-10-17T14:58:57.954Z,19.29
2022-10-17T15:02:01.632Z,19.06
2022-10-17T15:05:03.983Z,18.91
2022-10-17T15:08:13.618Z,18.84
2022-10-17T15:11:15.938Z,18.70
2022-10-17T15:14:18.827Z,18.39
2022-10-17T15:17:23.470Z,18.23
2022-10-17T15:20:28.162Z,18.10
2022-10-17T15:23:30.351Z,18.02
2022-10-17T15:26:34.175Z,17.75
2022-10-17T15:29:36.663Z,17.57
2022-10-17T15:32:39.183Z,17.44
2022-10-17T15:35:42.640Z,17.27
2022-10-17T15:38:45.098Z,17.12
2022-10-17T15:41:48.237Z,16.96
2022-10-17T15:44:50.846Z,16.82
2022-10-17T15:47:58.476Z,16.67
2022-10-17T15:51:01.003Z,16.54
2022-10-17T15:54:04.850Z,16.38
2022-10-17T15:57:14.844Z,16.23
2022-10-17T16:00:19.060Z,16.10
2022-10-17T16:06:29.131Z,15.84
2022-10-17T16:09:31.647Z,15.69
2022-10-17T16:12:37.945Z,15.62
2022-10-17T16:15:40.461Z,15.50
2022-10-17T16:18:42.739Z,15.37
2022-10-17T16:21:45.409Z,15.27
2022-10-17T16:24:47.665Z,15.15
2022-10-17T16:27:51.332Z,15.04
2022-10-17T16:30:53.617Z,14.95
2022-10-17T16:33:57.103Z,14.84
2022-10-17T16:36:59.314Z,14.76
2022-10-17T16:40:02.148Z,14.69
2022-10-17T16:43:04.711Z,14.63
2022-10-17T16:46:07.320Z,14.57
2022-10-17T16:49:10.088Z,14.49
2022-10-17T16:52:13.004Z,14.41
2022-10-17T16:55:18.712Z,14.39
2022-10-17T16:58:21.497Z,14.30
2022-10-17T17:01:24.458Z,14.20
2022-10-17T17:04:27.121Z,14.10
2022-10-17T17:07:30.199Z,14.01
2022-10-17T17:10:33.403Z,13.95
2022-10-17T17:13:36.043Z,13.87
2022-10-17T17:16:38.644Z,13.84
2022-10-17T17:19:40.875Z,13.80
2022-10-17T17:22:43.491Z,13.73
2022-10-17T17:25:46.078Z,13.64
2022-10-17T17:28:49.294Z,13.55
2022-10-17T17:31:51.919Z,13.46
2022-10-17T17:34:54.498Z,13.41
2022-10-17T17:37:56.799Z,13.34
2022-10-17T17:41:00.477Z,13.24
2022-10-17T17:44:03.155Z,13.24
2022-10-17T17:47:05.770Z,13.17
2022-10-17T17:50:08.356Z,13.06
2022-10-17T17:53:11.925Z,13.00
2022-10-17T17:56:15.780Z,12.94
2022-10-17T17:59:18.289Z,12.87
2022-10-17T18:02:20.662Z,12.82
2022-10-17T18:05:23.202Z,12.74
2022-10-17T18:08:25.460Z,12.69
2022-10-17T18:11:28.345Z,12.65
2022-10-17T18:14:30.590Z,12.59
2022-10-17T18:17:33.120Z,12.55
2022-10-17T18:20:39.315Z,12.49
2022-10-17T18:23:45.534Z,12.42
2022-10-17T18:26:47.783Z,12.37
2022-10-17T18:29:51.189Z,12.31
2022-10-17T18:32:53.400Z,12.25
2022-10-17T18:35:58.237Z,12.22
2022-10-17T18:39:00.951Z,12.25
2022-10-17T18:42:03.564Z,12.13
2022-10-17T18:45:06.250Z,12.04
2022-10-17T18:48:09.976Z,11.97
2022-10-17T18:51:12.994Z,11.94
2022-10-17T18:54:20.574Z,11.92
2022-10-17T18:57:26.013Z,11.86
2022-10-17T19:00:30.349Z,11.83
2022-10-17T19:03:32.681Z,11.82
2022-10-17T19:06:35.901Z,11.77
2022-10-17T19:09:38.287Z,11.76
2022-10-17T19:12:40.903Z,11.70
2022-10-17T19:15:43.212Z,11.65
2022-10-17T19:18:53.300Z,11.62
2022-10-17T19:21:56.244Z,11.60
2022-10-17T19:24:58.760Z,11.55
2022-10-17T19:28:01.099Z,11.57
2022-10-17T19:31:05.124Z,11.48
2022-10-17T19:34:07.402Z,11.44
2022-10-17T19:37:09.893Z,11.43
2022-10-17T19:40:12.537Z,11.37
2022-10-17T19:43:15.032Z,11.40
2022-10-17T19:46:18.598Z,11.32
2022-10-17T19:49:21.357Z,11.26
2022-10-17T19:52:23.574Z,11.25
2022-10-17T19:55:26.189Z,11.19
2022-10-17T19:58:28.932Z,11.15
2022-10-17T20:01:33.101Z,11.15
2022-10-17T20:04:35.668Z,11.10
2022-10-17T20:07:41.473Z,11.05
2022-10-17T20:10:47.333Z,11.02
2022-10-17T20:13:50.347Z,10.98
2022-10-17T20:16:52.886Z,10.93
2022-10-17T20:19:55.234Z,10.94
2022-10-17T20:22:57.736Z,10.89
2022-10-17T20:26:13.190Z,10.88
2022-10-17T20:29:24.099Z,10.89
2022-10-17T20:32:26.392Z,10.87
2022-10-17T20:35:28.925Z,10.87
2022-10-17T20:38:31.570Z,10.84
2022-10-17T20:41:34.491Z,10.78
2022-10-17T20:44:36.800Z,10.75
2022-10-17T20:47:47.121Z,10.67
2022-10-17T20:50:51.611Z,10.61
2022-10-17T20:53:54.158Z,10.57
2022-10-17T20:56:58.733Z,10.54
2022-10-17T21:00:04.515Z,10.49
2022-10-17T21:03:07.412Z,10.41
2022-10-17T21:06:10.243Z,10.35
2022-10-17T21:09:12.523Z,10.34
2022-10-17T21:12:21.804Z,10.26
2022-10-17T21:15:33.461Z,10.25
2022-10-17T21:18:36.242Z,10.19
2022-10-17T21:21:40.131Z,10.13
2022-10-17T21:24:42.656Z,10.05
2022-10-17T21:27:44.900Z,10.02
2022-10-17T21:30:47.681Z,9.96
2022-10-17T21:33:51.357Z,9.90
2022-10-17T21:36:53.988Z,9.84
2022-10-17T21:39:56.242Z,9.80
2022-10-17T21:42:58.750Z,9.74
2022-10-17T21:46:02.030Z,9.73
2022-10-17T21:49:04.570Z,9.74
2022-10-17T21:52:07.242Z,9.71
2022-10-17T21:55:09.757Z,9.70
2022-10-17T21:58:11.956Z,9.67
2022-10-17T22:01:22.027Z,9.67
2022-10-17T22:04:24.496Z,9.62
2022-10-17T22:07:26.751Z,9.59
2022-10-17T22:10:29.522Z,9.53
2022-10-17T22:13:31.715Z,9.53
2022-10-17T22:16:34.956Z,9.51
2022-10-17T22:19:37.131Z,9.46
2022-10-17T22:22:39.633Z,9.43
2022-10-17T22:25:41.928Z,9.41
2022-10-17T22:28:44.399Z,9.40
2022-10-17T22:31:46.703Z,9.35
2022-10-17T22:34:49.181Z,9.34
2022-10-17T22:37:54.057Z,9.31
2022-10-17T22:40:56.572Z,9.25
2022-10-17T22:43:58.777Z,9.30
2022-10-17T22:47:01.290Z,9.30
2022-10-17T22:50:03.624Z,9.25
2022-10-17T22:53:06.101Z,9.18
2022-10-17T22:56:10.922Z,9.12
2022-10-17T22:59:13.488Z,9.11
2022-10-17T23:02:15.855Z,9.07
2022-10-17T23:05:18.348Z,9.08
2022-10-17T23:08:24.042Z,9.06
2022-10-17T23:11:26.689Z,9.02
2022-10-17T23:14:28.875Z,8.98
2022-10-17T23:17:31.315Z,8.97
2022-10-17T23:20:33.570Z,8.94
2022-10-17T23:23:36.118Z,8.95
2022-10-17T23:26:38.317Z,8.92
2022-10-17T23:29:41.009Z,8.95
2022-10-17T23:32:43.262Z,8.95
2022-10-17T23:35:45.787Z,8.95
2022-10-17T23:38:48.643Z,8.91
2022-10-17T23:41:51.093Z,8.88
2022-10-17T23:44:53.337Z,8.84
2022-10-17T23:47:55.808Z,8.84
2022-10-17T23:50:58.212Z,8.82
2022-10-17T23:54:00.688Z,8.77
2022-10-17T23:57:03.062Z,8.73
